sensor_id;sensor_type;location;lat;lon;timestamp;temperature;humidity
820;DHT22;392;48.838;2.322;2024-03-02T00:00:31;8.10;62.50
820;DHT22;392;48.838;2.322;2024-03-02T00:02:59;8.10;63.00
820;DHT22;392;48.838;2.322;2024-03-02T00:05:26;8.10;63.30
820;DHT22;392;48.838;2.322;2024-03-02T00:07:54;8.10;63.20
820;DHT22;392;48.838;2.322;2024-03-02T00:10:26;8.10;63.40
820;DHT22;392;48.838;2.322;2024-03-02T00:12:57;8.10;63.30
820;DHT22;392;48.838;2.322;2024-03-02T00:15:40;8.10;63.30
820;DHT22;392;48.838;2.322;2024-03-02T00:18:12;8.00;63.20
820;DHT22;392;48.838;2.322;2024-03-02T00:20:39;8.00;63.10
820;DHT22;392;48.838;2.322;2024-03-02T00:23:08;8.00;63.40
820;DHT22;392;48.838;2.322;2024-03-02T00:25:39;8.00;63.70
820;DHT22;392;48.838;2.322;2024-03-02T00:28:16;8.00;63.70
820;DHT22;392;48.838;2.322;2024-03-02T00:30:56;8.00;64.20
820;DHT22;392;48.838;2.322;2024-03-02T00:33:27;8.00;64.40
820;DHT22;392;48.838;2.322;2024-03-02T00:35:57;8.00;64.60
820;DHT22;392;48.838;2.322;2024-03-02T00:38:25;8.00;64.50
820;DHT22;392;48.838;2.322;2024-03-02T00:40:53;8.00;64.00
820;DHT22;392;48.838;2.322;2024-03-02T00:43:40;7.90;64.10
820;DHT22;392;48.838;2.322;2024-03-02T00:46:11;7.90;64.50
820;DHT22;392;48.838;2.322;2024-03-02T00:48:39;7.90;64.80
820;DHT22;392;48.838;2.322;2024-03-02T00:51:12;7.90;65.00
820;DHT22;392;48.838;2.322;2024-03-02T00:53:40;7.90;65.10
820;DHT22;392;48.838;2.322;2024-03-02T00:56:09;7.90;65.40
820;DHT22;392;48.838;2.322;2024-03-02T00:58:37;7.90;65.20
820;DHT22;392;48.838;2.322;2024-03-02T01:01:05;7.90;65.50
820;DHT22;392;48.838;2.322;2024-03-02T01:03:34;7.90;65.60
820;DHT22;392;48.838;2.322;2024-03-02T01:06:03;7.90;65.60
820;DHT22;392;48.838;2.322;2024-03-02T01:08:33;7.90;65.90
820;DHT22;392;48.838;2.322;2024-03-02T01:11:01;7.90;65.60
820;DHT22;392;48.838;2.322;2024-03-02T01:13:28;7.80;65.60
820;DHT22;392;48.838;2.322;2024-03-02T01:15:56;7.80;65.90
820;DHT22;392;48.838;2.322;2024-03-02T01:18:24;7.80;66.40
820;DHT22;392;48.838;2.322;2024-03-02T01:20:53;7.80;66.60
820;DHT22;392;48.838;2.322;2024-03-02T01:23:21;7.80;66.60
820;DHT22;392;48.838;2.322;2024-03-02T01:25:49;7.80;66.90
820;DHT22;392;48.838;2.322;2024-03-02T01:28:17;7.80;67.60
820;DHT22;392;48.838;2.322;2024-03-02T01:30:44;7.80;67.70
820;DHT22;392;48.838;2.322;2024-03-02T01:33:12;7.80;67.40
820;DHT22;392;48.838;2.322;2024-03-02T01:35:39;7.80;67.30
820;DHT22;392;48.838;2.322;2024-03-02T01:38:07;7.80;67.40
820;DHT22;392;48.838;2.322;2024-03-02T01:40:35;7.90;67.20
820;DHT22;392;48.838;2.322;2024-03-02T01:43:04;7.80;66.90
820;DHT22;392;48.838;2.322;2024-03-02T01:45:31;7.90;67.10
820;DHT22;392;48.838;2.322;2024-03-02T01:47:59;7.90;66.70
820;DHT22;392;48.838;2.322;2024-03-02T01:50:27;7.90;66.70
820;DHT22;392;48.838;2.322;2024-03-02T01:52:55;7.80;66.60
820;DHT22;392;48.838;2.322;2024-03-02T01:55:24;7.80;66.60
820;DHT22;392;48.838;2.322;2024-03-02T01:57:53;7.80;66.60
820;DHT22;392;48.838;2.322;2024-03-02T02:00:21;7.80;66.60
820;DHT22;392;48.838;2.322;2024-03-02T02:02:50;7.80;66.60
820;DHT22;392;48.838;2.322;2024-03-02T02:05:18;7.80;66.60
820;DHT22;392;48.838;2.322;2024-03-02T02:07:45;7.80;66.60
820;DHT22;392;48.838;2.322;2024-03-02T02:10:13;7.80;66.60
820;DHT22;392;48.838;2.322;2024-03-02T02:12:42;7.70;67.20
820;DHT22;392;48.838;2.322;2024-03-02T02:15:22;7.70;66.50
820;DHT22;392;48.838;2.322;2024-03-02T02:17:53;7.70;67.20
820;DHT22;392;48.838;2.322;2024-03-02T02:20:21;7.70;66.50
820;DHT22;392;48.838;2.322;2024-03-02T02:22:59;7.70;66.50
820;DHT22;392;48.838;2.322;2024-03-02T02:25:28;7.60;66.50
820;DHT22;392;48.838;2.322;2024-03-02T02:27:56;7.60;66.70
820;DHT22;392;48.838;2.322;2024-03-02T02:30:24;7.60;66.70
820;DHT22;392;48.838;2.322;2024-03-02T02:32:52;7.60;67.20
820;DHT22;392;48.838;2.322;2024-03-02T02:35:20;7.60;67.60
820;DHT22;392;48.838;2.322;2024-03-02T02:37:48;7.60;68.10
820;DHT22;392;48.838;2.322;2024-03-02T02:40:18;7.60;68.60
820;DHT22;392;48.838;2.322;2024-03-02T02:42:45;7.60;68.30
820;DHT22;392;48.838;2.322;2024-03-02T02:45:12;7.60;67.90
820;DHT22;392;48.838;2.322;2024-03-02T02:47:40;7.60;67.50
820;DHT22;392;48.838;2.322;2024-03-02T02:50:08;7.60;67.20
820;DHT22;392;48.838;2.322;2024-03-02T02:52:37;7.60;67.30
820;DHT22;392;48.838;2.322;2024-03-02T02:55:07;7.60;67.60
820;DHT22;392;48.838;2.322;2024-03-02T02:57:38;7.60;67.20
820;DHT22;392;48.838;2.322;2024-03-02T03:00:09;7.50;67.60
820;DHT22;392;48.838;2.322;2024-03-02T03:02:40;7.50;67.50
820;DHT22;392;48.838;2.322;2024-03-02T03:05:09;7.50;67.60
820;DHT22;392;48.838;2.322;2024-03-02T03:07:37;7.50;67.80
820;DHT22;392;48.838;2.322;2024-03-02T03:10:07;7.50;67.70
820;DHT22;392;48.838;2.322;2024-03-02T03:12:36;7.50;67.90
820;DHT22;392;48.838;2.322;2024-03-02T03:15:04;7.50;67.40
820;DHT22;392;48.838;2.322;2024-03-02T03:17:32;7.50;67.60
820;DHT22;392;48.838;2.322;2024-03-02T03:20:00;7.50;67.40
820;DHT22;392;48.838;2.322;2024-03-02T03:22:28;7.50;66.80
820;DHT22;392;48.838;2.322;2024-03-02T03:24:56;7.50;66.40
820;DHT22;392;48.838;2.322;2024-03-02T03:27:23;7.50;66.40
820;DHT22;392;48.838;2.322;2024-03-02T03:29:51;7.50;66.40
820;DHT22;392;48.838;2.322;2024-03-02T03:32:20;7.50;65.90
820;DHT22;392;48.838;2.322;2024-03-02T03:34:47;7.50;65.90
820;DHT22;392;48.838;2.322;2024-03-02T03:37:15;7.40;65.80
820;DHT22;392;48.838;2.322;2024-03-02T03:39:42;7.40;66.10
820;DHT22;392;48.838;2.322;2024-03-02T03:42:09;7.40;66.30
820;DHT22;392;48.838;2.322;2024-03-02T03:44:36;7.30;66.20
820;DHT22;392;48.838;2.322;2024-03-02T03:47:06;7.40;66.50
820;DHT22;392;48.838;2.322;2024-03-02T03:49:33;7.30;66.40
820;DHT22;392;48.838;2.322;2024-03-02T03:52:01;7.30;67.00
820;DHT22;392;48.838;2.322;2024-03-02T03:54:28;7.30;67.10
820;DHT22;392;48.838;2.322;2024-03-02T03:56:56;7.40;66.90
820;DHT22;392;48.838;2.322;2024-03-02T03:59:23;7.30;66.90
820;DHT22;392;48.838;2.322;2024-03-02T04:01:50;7.30;66.70
820;DHT22;392;48.838;2.322;2024-03-02T04:04:20;7.40;67.50
820;DHT22;392;48.838;2.322;2024-03-02T04:06:47;7.40;66.90
820;DHT22;392;48.838;2.322;2024-03-02T04:09:14;7.30;66.20
820;DHT22;392;48.838;2.322;2024-03-02T04:11:41;7.30;66.40
820;DHT22;392;48.838;2.322;2024-03-02T04:14:08;7.30;66.80
820;DHT22;392;48.838;2.322;2024-03-02T04:16:36;7.30;66.20
820;DHT22;392;48.838;2.322;2024-03-02T04:19:03;7.30;66.50
820;DHT22;392;48.838;2.322;2024-03-02T04:21:32;7.20;66.70
820;DHT22;392;48.838;2.322;2024-03-02T04:23:59;7.20;66.80
820;DHT22;392;48.838;2.322;2024-03-02T04:26:26;7.20;66.70
820;DHT22;392;48.838;2.322;2024-03-02T04:28:54;7.20;66.40
820;DHT22;392;48.838;2.322;2024-03-02T04:31:21;7.20;66.10
820;DHT22;392;48.838;2.322;2024-03-02T04:33:48;7.20;66.10
820;DHT22;392;48.838;2.322;2024-03-02T04:36:15;7.10;66.60
820;DHT22;392;48.838;2.322;2024-03-02T04:38:44;7.10;67.20
820;DHT22;392;48.838;2.322;2024-03-02T04:41:11;7.10;67.30
820;DHT22;392;48.838;2.322;2024-03-02T04:43:39;7.20;67.20
820;DHT22;392;48.838;2.322;2024-03-02T04:46:07;7.10;67.00
820;DHT22;392;48.838;2.322;2024-03-02T04:48:34;7.10;66.70
820;DHT22;392;48.838;2.322;2024-03-02T04:51:02;7.10;66.40
820;DHT22;392;48.838;2.322;2024-03-02T04:53:29;7.10;66.10
820;DHT22;392;48.838;2.322;2024-03-02T04:55:58;7.10;66.30
820;DHT22;392;48.838;2.322;2024-03-02T04:58:46;7.10;66.50
820;DHT22;392;48.838;2.322;2024-03-02T05:01:13;7.10;66.70
820;DHT22;392;48.838;2.322;2024-03-02T05:03:42;7.10;67.10
820;DHT22;392;48.838;2.322;2024-03-02T05:06:09;7.00;66.90
820;DHT22;392;48.838;2.322;2024-03-02T05:08:36;7.10;67.00
820;DHT22;392;48.838;2.322;2024-03-02T05:11:05;7.10;66.90
820;DHT22;392;48.838;2.322;2024-03-02T05:13:46;7.10;67.30
820;DHT22;392;48.838;2.322;2024-03-02T05:16:13;7.10;67.40
820;DHT22;392;48.838;2.322;2024-03-02T05:18:41;7.10;67.30
820;DHT22;392;48.838;2.322;2024-03-02T05:21:08;7.10;67.30
820;DHT22;392;48.838;2.322;2024-03-02T05:23:35;7.10;67.40
820;DHT22;392;48.838;2.322;2024-03-02T05:26:04;7.10;67.50
820;DHT22;392;48.838;2.322;2024-03-02T05:28:32;7.10;67.70
820;DHT22;392;48.838;2.322;2024-03-02T05:30:59;7.10;68.00
820;DHT22;392;48.838;2.322;2024-03-02T05:33:26;7.10;68.20
820;DHT22;392;48.838;2.322;2024-03-02T05:35:54;7.10;68.20
820;DHT22;392;48.838;2.322;2024-03-02T05:38:21;7.10;68.20
820;DHT22;392;48.838;2.322;2024-03-02T05:40:48;7.10;68.20
820;DHT22;392;48.838;2.322;2024-03-02T05:43:17;7.10;68.20
820;DHT22;392;48.838;2.322;2024-03-02T05:45:45;7.10;68.50
820;DHT22;392;48.838;2.322;2024-03-02T05:48:12;7.10;68.70
820;DHT22;392;48.838;2.322;2024-03-02T05:50:40;7.10;69.10
820;DHT22;392;48.838;2.322;2024-03-02T05:53:07;7.10;69.10
820;DHT22;392;48.838;2.322;2024-03-02T05:55:34;7.10;69.10
820;DHT22;392;48.838;2.322;2024-03-02T05:58:02;7.20;69.60
820;DHT22;392;48.838;2.322;2024-03-02T06:00:44;7.20;69.90
820;DHT22;392;48.838;2.322;2024-03-02T06:03:12;7.20;70.40
820;DHT22;392;48.838;2.322;2024-03-02T06:05:39;7.30;70.70
820;DHT22;392;48.838;2.322;2024-03-02T06:08:06;7.30;70.70
820;DHT22;392;48.838;2.322;2024-03-02T06:10:34;7.30;70.70
820;DHT22;392;48.838;2.322;2024-03-02T06:13:01;7.30;70.30
820;DHT22;392;48.838;2.322;2024-03-02T06:15:28;7.30;70.10
820;DHT22;392;48.838;2.322;2024-03-02T06:17:56;7.30;70.10
820;DHT22;392;48.838;2.322;2024-03-02T06:20:24;7.30;70.20
820;DHT22;392;48.838;2.322;2024-03-02T06:22:52;7.30;70.30
820;DHT22;392;48.838;2.322;2024-03-02T06:25:19;7.30;70.70
820;DHT22;392;48.838;2.322;2024-03-02T06:27:47;7.40;70.90
820;DHT22;392;48.838;2.322;2024-03-02T06:30:15;7.40;71.20
820;DHT22;392;48.838;2.322;2024-03-02T06:32:42;7.40;71.40
820;DHT22;392;48.838;2.322;2024-03-02T06:35:11;7.40;71.90
820;DHT22;392;48.838;2.322;2024-03-02T06:37:38;7.50;72.20
820;DHT22;392;48.838;2.322;2024-03-02T06:40:07;7.50;72.00
820;DHT22;392;48.838;2.322;2024-03-02T06:42:33;7.60;72.00
820;DHT22;392;48.838;2.322;2024-03-02T06:45:01;7.60;71.70
820;DHT22;392;48.838;2.322;2024-03-02T06:47:28;7.60;71.40
820;DHT22;392;48.838;2.322;2024-03-02T06:49:56;7.70;71.40
820;DHT22;392;48.838;2.322;2024-03-02T06:52:25;7.70;71.20
820;DHT22;392;48.838;2.322;2024-03-02T06:54:52;7.70;71.10
820;DHT22;392;48.838;2.322;2024-03-02T06:57:20;7.80;71.10
820;DHT22;392;48.838;2.322;2024-03-02T06:59:47;7.80;71.00
820;DHT22;392;48.838;2.322;2024-03-02T07:02:16;7.80;71.00
820;DHT22;392;48.838;2.322;2024-03-02T07:04:43;7.80;70.70
820;DHT22;392;48.838;2.322;2024-03-02T07:07:11;7.90;70.30
820;DHT22;392;48.838;2.322;2024-03-02T07:09:39;7.90;70.10
820;DHT22;392;48.838;2.322;2024-03-02T07:12:07;8.00;69.70
820;DHT22;392;48.838;2.322;2024-03-02T07:14:35;8.00;69.60
820;DHT22;392;48.838;2.322;2024-03-02T07:17:33;8.00;69.70
820;DHT22;392;48.838;2.322;2024-03-02T07:20:03;8.10;69.60
820;DHT22;392;48.838;2.322;2024-03-02T07:22:32;8.10;69.00
820;DHT22;392;48.838;2.322;2024-03-02T07:25:01;8.20;69.20
820;DHT22;392;48.838;2.322;2024-03-02T07:27:29;8.30;69.10
820;DHT22;392;48.838;2.322;2024-03-02T07:29:57;8.30;69.10
820;DHT22;392;48.838;2.322;2024-03-02T07:32:24;8.40;68.90
820;DHT22;392;48.838;2.322;2024-03-02T07:34:52;8.40;68.80
820;DHT22;392;48.838;2.322;2024-03-02T07:37:19;8.50;68.40
820;DHT22;392;48.838;2.322;2024-03-02T07:39:46;8.50;68.20
820;DHT22;392;48.838;2.322;2024-03-02T07:42:15;8.60;68.20
820;DHT22;392;48.838;2.322;2024-03-02T07:44:43;8.70;67.40
820;DHT22;392;48.838;2.322;2024-03-02T07:47:11;8.70;67.30
820;DHT22;392;48.838;2.322;2024-03-02T07:49:38;8.80;66.40
820;DHT22;392;48.838;2.322;2024-03-02T07:52:05;8.80;65.60
820;DHT22;392;48.838;2.322;2024-03-02T07:54:33;8.80;64.70
820;DHT22;392;48.838;2.322;2024-03-02T07:57:00;8.80;64.90
820;DHT22;392;48.838;2.322;2024-03-02T07:59:28;8.80;64.50
820;DHT22;392;48.838;2.322;2024-03-02T08:01:56;8.80;64.50
820;DHT22;392;48.838;2.322;2024-03-02T08:04:23;8.90;65.00
820;DHT22;392;48.838;2.322;2024-03-02T08:06:51;8.90;64.20
820;DHT22;392;48.838;2.322;2024-03-02T08:09:18;8.90;63.50
820;DHT22;392;48.838;2.322;2024-03-02T08:11:45;9.00;63.80
820;DHT22;392;48.838;2.322;2024-03-02T08:14:13;9.00;63.20
820;DHT22;392;48.838;2.322;2024-03-02T08:16:41;9.00;63.10
820;DHT22;392;48.838;2.322;2024-03-02T08:19:09;9.00;63.10
820;DHT22;392;48.838;2.322;2024-03-02T08:21:37;9.00;63.10
820;DHT22;392;48.838;2.322;2024-03-02T08:24:04;9.00;63.60
820;DHT22;392;48.838;2.322;2024-03-02T08:26:32;9.10;64.00
820;DHT22;392;48.838;2.322;2024-03-02T08:28:59;9.10;64.30
820;DHT22;392;48.838;2.322;2024-03-02T08:31:27;9.10;64.90
820;DHT22;392;48.838;2.322;2024-03-02T08:33:56;9.10;64.90
820;DHT22;392;48.838;2.322;2024-03-02T08:36:24;9.10;64.20
820;DHT22;392;48.838;2.322;2024-03-02T08:38:52;9.10;63.90
820;DHT22;392;48.838;2.322;2024-03-02T08:41:19;9.10;63.40
820;DHT22;392;48.838;2.322;2024-03-02T08:43:46;9.00;63.50
820;DHT22;392;48.838;2.322;2024-03-02T08:46:14;9.00;63.40
820;DHT22;392;48.838;2.322;2024-03-02T08:48:42;9.00;63.40
820;DHT22;392;48.838;2.322;2024-03-02T08:51:12;9.00;63.60
820;DHT22;392;48.838;2.322;2024-03-02T08:53:41;9.00;63.70
820;DHT22;392;48.838;2.322;2024-03-02T08:56:09;9.00;63.80
820;DHT22;392;48.838;2.322;2024-03-02T08:58:38;9.00;64.10
820;DHT22;392;48.838;2.322;2024-03-02T09:01:06;8.90;62.50
820;DHT22;392;48.838;2.322;2024-03-02T09:03:34;8.90;62.00
820;DHT22;392;48.838;2.322;2024-03-02T09:06:01;8.80;62.50
820;DHT22;392;48.838;2.322;2024-03-02T09:08:30;8.80;62.90
820;DHT22;392;48.838;2.322;2024-03-02T09:10:57;8.70;64.10
820;DHT22;392;48.838;2.322;2024-03-02T09:13:24;8.80;65.40
820;DHT22;392;48.838;2.322;2024-03-02T09:15:52;8.80;65.80
820;DHT22;392;48.838;2.322;2024-03-02T09:18:19;8.80;65.80
820;DHT22;392;48.838;2.322;2024-03-02T09:20:46;8.70;65.80
820;DHT22;392;48.838;2.322;2024-03-02T09:23:14;8.70;66.90
820;DHT22;392;48.838;2.322;2024-03-02T09:25:42;8.70;67.40
820;DHT22;392;48.838;2.322;2024-03-02T09:28:10;8.70;68.30
820;DHT22;392;48.838;2.322;2024-03-02T09:30:37;8.70;68.70
820;DHT22;392;48.838;2.322;2024-03-02T09:33:04;8.60;68.80
820;DHT22;392;48.838;2.322;2024-03-02T09:35:32;8.60;69.30
820;DHT22;392;48.838;2.322;2024-03-02T09:37:59;8.50;70.10
820;DHT22;392;48.838;2.322;2024-03-02T09:40:26;8.50;71.70
820;DHT22;392;48.838;2.322;2024-03-02T09:42:56;8.50;72.40
820;DHT22;392;48.838;2.322;2024-03-02T09:45:24;8.50;73.10
820;DHT22;392;48.838;2.322;2024-03-02T09:47:52;8.60;75.00
820;DHT22;392;48.838;2.322;2024-03-02T09:50:20;8.60;76.50
820;DHT22;392;48.838;2.322;2024-03-02T09:52:48;8.70;77.80
820;DHT22;392;48.838;2.322;2024-03-02T09:55:16;8.70;78.90
820;DHT22;392;48.838;2.322;2024-03-02T09:57:45;8.80;79.60
820;DHT22;392;48.838;2.322;2024-03-02T10:00:16;8.90;80.80
820;DHT22;392;48.838;2.322;2024-03-02T10:02:44;9.10;82.50
820;DHT22;392;48.838;2.322;2024-03-02T10:05:23;9.30;83.70
820;DHT22;392;48.838;2.322;2024-03-02T10:07:59;9.50;84.00
820;DHT22;392;48.838;2.322;2024-03-02T10:10:35;9.70;84.30
820;DHT22;392;48.838;2.322;2024-03-02T10:13:06;9.80;83.00
820;DHT22;392;48.838;2.322;2024-03-02T10:15:37;9.90;81.70
820;DHT22;392;48.838;2.322;2024-03-02T10:18:08;10.00;79.20
820;DHT22;392;48.838;2.322;2024-03-02T10:20:38;10.10;77.70
820;DHT22;392;48.838;2.322;2024-03-02T10:23:11;10.20;77.80
820;DHT22;392;48.838;2.322;2024-03-02T10:25:39;10.20;74.00
820;DHT22;392;48.838;2.322;2024-03-02T10:28:06;10.10;71.80
820;DHT22;392;48.838;2.322;2024-03-02T10:30:34;10.10;70.50
820;DHT22;392;48.838;2.322;2024-03-02T10:33:04;10.00;69.80
820;DHT22;392;48.838;2.322;2024-03-02T10:35:33;10.00;69.20
820;DHT22;392;48.838;2.322;2024-03-02T10:38:03;9.90;70.70
820;DHT22;392;48.838;2.322;2024-03-02T10:40:32;9.80;71.40
820;DHT22;392;48.838;2.322;2024-03-02T10:43:01;9.70;71.10
820;DHT22;392;48.838;2.322;2024-03-02T10:45:29;9.60;71.70
820;DHT22;392;48.838;2.322;2024-03-02T10:47:58;9.50;74.00
820;DHT22;392;48.838;2.322;2024-03-02T10:50:25;9.50;76.70
820;DHT22;392;48.838;2.322;2024-03-02T10:52:52;9.50;79.10
820;DHT22;392;48.838;2.322;2024-03-02T10:55:19;9.60;81.30
820;DHT22;392;48.838;2.322;2024-03-02T10:57:50;9.60;81.40
820;DHT22;392;48.838;2.322;2024-03-02T11:00:19;9.70;81.70
820;DHT22;392;48.838;2.322;2024-03-02T11:02:52;9.70;81.50
820;DHT22;392;48.838;2.322;2024-03-02T11:05:27;9.70;81.20
820;DHT22;392;48.838;2.322;2024-03-02T11:08:00;9.70;79.70
820;DHT22;392;48.838;2.322;2024-03-02T11:10:34;9.70;79.70
820;DHT22;392;48.838;2.322;2024-03-02T11:13:05;9.70;79.50
820;DHT22;392;48.838;2.322;2024-03-02T11:15:36;9.80;80.10
820;DHT22;392;48.838;2.322;2024-03-02T11:18:05;9.80;77.90
820;DHT22;392;48.838;2.322;2024-03-02T11:20:36;9.90;78.40
820;DHT22;392;48.838;2.322;2024-03-02T11:23:06;10.10;79.60
820;DHT22;392;48.838;2.322;2024-03-02T11:25:33;10.30;78.60
820;DHT22;392;48.838;2.322;2024-03-02T11:28:02;10.40;75.80
820;DHT22;392;48.838;2.322;2024-03-02T11:30:49;10.40;73.00
820;DHT22;392;48.838;2.322;2024-03-02T11:33:26;10.30;70.60
820;DHT22;392;48.838;2.322;2024-03-02T11:35:56;10.20;70.00
820;DHT22;392;48.838;2.322;2024-03-02T11:38:31;10.10;68.70
820;DHT22;392;48.838;2.322;2024-03-02T11:41:00;10.00;68.20
820;DHT22;392;48.838;2.322;2024-03-02T11:43:29;10.10;69.20
820;DHT22;392;48.838;2.322;2024-03-02T11:45:58;10.30;68.20
820;DHT22;392;48.838;2.322;2024-03-02T11:48:26;10.40;66.70
820;DHT22;392;48.838;2.322;2024-03-02T11:50:59;10.50;64.10
820;DHT22;392;48.838;2.322;2024-03-02T11:53:28;10.50;62.10
820;DHT22;392;48.838;2.322;2024-03-02T11:55:56;10.60;60.60
820;DHT22;392;48.838;2.322;2024-03-02T11:58:23;10.60;59.90
820;DHT22;392;48.838;2.322;2024-03-02T12:00:52;10.70;59.00
820;DHT22;392;48.838;2.322;2024-03-02T12:03:22;10.70;59.20
820;DHT22;392;48.838;2.322;2024-03-02T12:05:52;10.90;59.20
820;DHT22;392;48.838;2.322;2024-03-02T12:08:21;10.90;57.80
820;DHT22;392;48.838;2.322;2024-03-02T12:10:59;10.80;57.00
820;DHT22;392;48.838;2.322;2024-03-02T12:13:27;10.70;56.90
820;DHT22;392;48.838;2.322;2024-03-02T12:15:55;10.70;57.20
820;DHT22;392;48.838;2.322;2024-03-02T12:18:22;10.60;57.20
820;DHT22;392;48.838;2.322;2024-03-02T12:20:50;10.60;58.90
820;DHT22;392;48.838;2.322;2024-03-02T12:23:23;10.50;58.80
820;DHT22;392;48.838;2.322;2024-03-02T12:25:51;10.60;59.50
820;DHT22;392;48.838;2.322;2024-03-02T12:28:19;10.60;60.60
820;DHT22;392;48.838;2.322;2024-03-02T12:30:46;10.70;60.70
820;DHT22;392;48.838;2.322;2024-03-02T12:33:14;10.70;59.70
820;DHT22;392;48.838;2.322;2024-03-02T12:35:41;10.70;59.00
820;DHT22;392;48.838;2.322;2024-03-02T12:38:09;10.80;59.10
820;DHT22;392;48.838;2.322;2024-03-02T12:40:39;10.70;57.90
820;DHT22;392;48.838;2.322;2024-03-02T12:43:06;10.70;58.80
820;DHT22;392;48.838;2.322;2024-03-02T12:45:34;10.80;59.80
820;DHT22;392;48.838;2.322;2024-03-02T12:48:01;10.90;59.40
820;DHT22;392;48.838;2.322;2024-03-02T12:50:28;11.00;58.40
820;DHT22;392;48.838;2.322;2024-03-02T12:52:56;11.10;57.00
820;DHT22;392;48.838;2.322;2024-03-02T12:55:23;11.10;54.60
820;DHT22;392;48.838;2.322;2024-03-02T12:57:52;11.10;55.20
820;DHT22;392;48.838;2.322;2024-03-02T13:00:21;11.10;55.40
820;DHT22;392;48.838;2.322;2024-03-02T13:02:49;11.20;55.60
820;DHT22;392;48.838;2.322;2024-03-02T13:05:17;11.20;56.80
820;DHT22;392;48.838;2.322;2024-03-02T13:07:47;11.30;56.40
820;DHT22;392;48.838;2.322;2024-03-02T13:10:14;11.40;55.90
820;DHT22;392;48.838;2.322;2024-03-02T13:12:43;11.40;55.10
820;DHT22;392;48.838;2.322;2024-03-02T13:15:11;11.50;54.60
820;DHT22;392;48.838;2.322;2024-03-02T13:17:39;11.50;54.70
820;DHT22;392;48.838;2.322;2024-03-02T13:20:07;11.50;54.20
820;DHT22;392;48.838;2.322;2024-03-02T13:22:36;11.60;52.50
820;DHT22;392;48.838;2.322;2024-03-02T13:25:04;11.60;51.80
820;DHT22;392;48.838;2.322;2024-03-02T13:27:34;11.60;51.50
820;DHT22;392;48.838;2.322;2024-03-02T13:30:02;11.70;51.10
820;DHT22;392;48.838;2.322;2024-03-02T13:32:32;11.60;50.30
820;DHT22;392;48.838;2.322;2024-03-02T13:35:00;11.60;51.40
820;DHT22;392;48.838;2.322;2024-03-02T13:37:29;11.60;51.90
820;DHT22;392;48.838;2.322;2024-03-02T13:39:56;11.50;52.70
820;DHT22;392;48.838;2.322;2024-03-02T13:42:24;11.50;53.50
820;DHT22;392;48.838;2.322;2024-03-02T13:44:51;11.40;53.90
820;DHT22;392;48.838;2.322;2024-03-02T13:47:18;11.40;54.90
820;DHT22;392;48.838;2.322;2024-03-02T13:49:48;11.40;56.10
820;DHT22;392;48.838;2.322;2024-03-02T13:52:15;11.40;57.00
820;DHT22;392;48.838;2.322;2024-03-02T13:54:44;11.40;56.70
820;DHT22;392;48.838;2.322;2024-03-02T13:57:12;11.40;57.40
820;DHT22;392;48.838;2.322;2024-03-02T13:59:41;11.40;57.40
820;DHT22;392;48.838;2.322;2024-03-02T14:02:09;11.30;58.10
820;DHT22;392;48.838;2.322;2024-03-02T14:04:37;11.40;59.60
820;DHT22;392;48.838;2.322;2024-03-02T14:07:06;11.40;59.60
820;DHT22;392;48.838;2.322;2024-03-02T14:09:33;11.40;58.80
820;DHT22;392;48.838;2.322;2024-03-02T14:12:00;11.40;59.60
820;DHT22;392;48.838;2.322;2024-03-02T14:14:28;11.40;61.40
820;DHT22;392;48.838;2.322;2024-03-02T14:16:56;11.50;62.20
820;DHT22;392;48.838;2.322;2024-03-02T14:19:26;11.60;62.10
820;DHT22;392;48.838;2.322;2024-03-02T14:21:53;11.60;61.30
820;DHT22;392;48.838;2.322;2024-03-02T14:24:23;11.60;60.60
820;DHT22;392;48.838;2.322;2024-03-02T14:26:51;11.60;61.00
820;DHT22;392;48.838;2.322;2024-03-02T14:29:18;11.60;61.10
820;DHT22;392;48.838;2.322;2024-03-02T14:31:46;11.60;60.70
820;DHT22;392;48.838;2.322;2024-03-02T14:34:14;11.50;59.40
820;DHT22;392;48.838;2.322;2024-03-02T14:36:41;11.30;59.50
820;DHT22;392;48.838;2.322;2024-03-02T14:39:09;11.20;59.70
820;DHT22;392;48.838;2.322;2024-03-02T14:41:38;11.10;60.50
820;DHT22;392;48.838;2.322;2024-03-02T14:44:05;11.00;62.00
820;DHT22;392;48.838;2.322;2024-03-02T14:46:32;10.90;63.20
820;DHT22;392;48.838;2.322;2024-03-02T14:49:00;10.80;64.80
820;DHT22;392;48.838;2.322;2024-03-02T14:51:27;10.80;65.40
820;DHT22;392;48.838;2.322;2024-03-02T14:53:55;10.70;65.30
820;DHT22;392;48.838;2.322;2024-03-02T14:56:22;10.60;65.80
820;DHT22;392;48.838;2.322;2024-03-02T14:58:51;10.50;66.70
820;DHT22;392;48.838;2.322;2024-03-02T15:01:19;10.50;67.60
820;DHT22;392;48.838;2.322;2024-03-02T15:03:48;10.40;68.40
820;DHT22;392;48.838;2.322;2024-03-02T15:06:15;10.40;69.70
820;DHT22;392;48.838;2.322;2024-03-02T15:08:43;10.40;70.10
820;DHT22;392;48.838;2.322;2024-03-02T15:11:12;10.40;70.00
820;DHT22;392;48.838;2.322;2024-03-02T15:13:40;10.40;69.90
820;DHT22;392;48.838;2.322;2024-03-02T15:16:08;10.40;69.90
820;DHT22;392;48.838;2.322;2024-03-02T15:18:35;10.40;70.10
820;DHT22;392;48.838;2.322;2024-03-02T15:21:03;10.40;70.00
820;DHT22;392;48.838;2.322;2024-03-02T15:23:31;10.50;69.60
820;DHT22;392;48.838;2.322;2024-03-02T15:25:58;10.50;69.50
820;DHT22;392;48.838;2.322;2024-03-02T15:28:26;10.50;68.90
820;DHT22;392;48.838;2.322;2024-03-02T15:30:53;10.50;68.00
820;DHT22;392;48.838;2.322;2024-03-02T15:33:22;10.50;68.00
820;DHT22;392;48.838;2.322;2024-03-02T15:35:51;10.50;68.00
820;DHT22;392;48.838;2.322;2024-03-02T15:38:18;10.60;68.70
820;DHT22;392;48.838;2.322;2024-03-02T15:40:46;10.60;68.80
820;DHT22;392;48.838;2.322;2024-03-02T15:43:13;10.60;68.10
820;DHT22;392;48.838;2.322;2024-03-02T15:45:40;10.60;67.80
820;DHT22;392;48.838;2.322;2024-03-02T15:48:08;10.60;67.80
820;DHT22;392;48.838;2.322;2024-03-02T15:50:36;10.60;67.80
820;DHT22;392;48.838;2.322;2024-03-02T15:53:04;10.60;67.60
820;DHT22;392;48.838;2.322;2024-03-02T15:55:32;10.70;67.30
820;DHT22;392;48.838;2.322;2024-03-02T15:58:00;10.70;66.20
820;DHT22;392;48.838;2.322;2024-03-02T16:00:29;10.60;65.70
820;DHT22;392;48.838;2.322;2024-03-02T16:02:56;10.60;65.60
820;DHT22;392;48.838;2.322;2024-03-02T16:05:24;10.60;64.80
820;DHT22;392;48.838;2.322;2024-03-02T16:07:52;10.50;64.10
820;DHT22;392;48.838;2.322;2024-03-02T16:10:19;10.50;64.10
820;DHT22;392;48.838;2.322;2024-03-02T16:12:47;10.40;64.00
820;DHT22;392;48.838;2.322;2024-03-02T16:15:14;10.30;63.80
820;DHT22;392;48.838;2.322;2024-03-02T16:17:42;10.30;63.00
820;DHT22;392;48.838;2.322;2024-03-02T16:20:09;10.10;62.70
820;DHT22;392;48.838;2.322;2024-03-02T16:22:37;10.00;63.00
820;DHT22;392;48.838;2.322;2024-03-02T16:25:07;10.00;63.50
820;DHT22;392;48.838;2.322;2024-03-02T16:27:34;10.00;65.00
820;DHT22;392;48.838;2.322;2024-03-02T16:30:01;10.00;65.10
820;DHT22;392;48.838;2.322;2024-03-02T16:32:31;9.90;65.10
820;DHT22;392;48.838;2.322;2024-03-02T16:34:58;9.80;64.50
820;DHT22;392;48.838;2.322;2024-03-02T16:37:25;9.70;64.20
820;DHT22;392;48.838;2.322;2024-03-02T16:39:52;9.60;64.70
820;DHT22;392;48.838;2.322;2024-03-02T16:42:22;9.60;65.80
820;DHT22;392;48.838;2.322;2024-03-02T16:44:50;9.50;67.50
820;DHT22;392;48.838;2.322;2024-03-02T16:47:21;9.50;68.30
820;DHT22;392;48.838;2.322;2024-03-02T16:49:48;9.50;68.10
820;DHT22;392;48.838;2.322;2024-03-02T16:52:16;9.40;67.60
820;DHT22;392;48.838;2.322;2024-03-02T16:54:43;9.30;67.30